KSJT/SJT METAR and TAF weather

Enter ICAO airport designator
Station Type Date Time Source
KSJT METAR 2022/06/28 08:51 UTC NOAA

KSJT 280851Z AUTO 00000KT 10SM CLR 21/18 A3020 RMK AO2 SLP200 T02110178 58007


Station Type Date Time Source
KSJT Decoded METAR 2022/06/28 08:51 UTC NOAA

MATHIS FIELD, TX, United States (KSJT) 31-21N 100-30W 581M
Jun 28, 2022 - 04:51 AM EDT / 2022.06.28 0851 UTC
Wind: Calm:0
Visibility: 10 mile(s):0
Sky conditions: clear
Temperature: 70.0 F (21.1 C)
Dew Point: 64.0 F (17.8 C)
Relative Humidity: 81%
Pressure (altimeter): 30.2 in. Hg (1022 hPa)
Pressure tendency: 0.02 inches (0.7 hPa) lower than three hours ago
ob: KSJT 280851Z AUTO 00000KT 10SM CLR 21/18 A3020 RMK AO2 SLP200 T02110178 58007
cycle: 9

Station Type Date Time Source
KSJT TAF 2022/06/28 06:42 UTC NOAA

TAF KSJT 280540Z 2806/2906 VRB06KT P6SM SCT090 BKN120
FM281400 02008KT P6SM FEW150 SCT250
FM281900 05008G15KT P6SM VCSH SCT040 BKN060
FM290100 VRB05KT P6SM SCT150 BKN250

Example: see airport list